Time;durP1;ratioP1;P1;durP2;ratioP2;P2;SDS_P1;SDS_P2;PMS_P1;PMS_P2;Temp;Humidity;BMP_temperature;BMP_pressure;BME280_temperature;BME280_humidity;BME280_pressure;Samples;Min_cycle;Max_cycle;Signal;HPM_P1;HPM_P2
2022/07/15 00:02:14;;;;;;;5.20;2.70;;;;;;;;;;5072754;28;20104;-75
2022/07/15 00:04:40;;;;;;;5.43;2.50;;;;;;;;;;5072909;28;20040;-76
2022/07/15 00:07:06;;;;;;;4.82;2.90;;;;;;;;;;5072900;28;20025;-76
2022/07/15 00:12:18;;;;;;;5.80;2.95;;;;;;;;;;5072754;28;20052;-76
2022/07/15 00:14:44;;;;;;;3.42;2.63;;;;;;;;;;5072548;28;20047;-76
2022/07/15 00:17:10;;;;;;;6.65;3.22;;;;;;;;;;5072963;28;20107;-75
2022/07/15 00:19:37;;;;;;;5.97;2.58;;;;;;;;;;5072803;28;20040;-74
2022/07/15 00:22:03;;;;;;;5.82;2.78;;;;;;;;;;5072624;28;20157;-76
2022/07/15 00:24:30;;;;;;;4.53;2.95;;;;;;;;;;5072703;28;20036;-75
2022/07/15 00:26:56;;;;;;;4.43;2.97;;;;;;;;;;5072696;28;20032;-79
2022/07/15 00:29:22;;;;;;;7.45;2.97;;;;;;;;;;5072987;28;20474;-78
2022/07/15 00:31:49;;;;;;;5.32;3.30;;;;;;;;;;5072628;28;20021;-78
2022/07/15 00:34:16;;;;;;;3.45;2.60;;;;;;;;;;5072712;28;20103;-75
2022/07/15 00:36:42;;;;;;;8.80;3.38;;;;;;;;;;5054711;28;20017;-75
2022/07/15 00:39:09;;;;;;;4.60;2.90;;;;;;;;;;5072449;28;20032;-76
2022/07/15 00:41:42;;;;;;;3.78;2.40;;;;;;;;;;5072503;28;20024;-76
2022/07/15 00:44:08;;;;;;;3.13;2.58;;;;;;;;;;5072253;28;20023;-75
2022/07/15 00:46:35;;;;;;;3.17;2.30;;;;;;;;;;5075903;28;20090;-75
2022/07/15 00:49:02;;;;;;;2.97;2.42;;;;;;;;;;5076122;28;20035;-75
2022/07/15 00:51:32;;;;;;;4.40;2.67;;;;;;;;;;5058115;28;20029;-75
2022/07/15 00:53:58;;;;;;;4.17;2.50;;;;;;;;;;5076112;28;20071;-76
2022/07/15 00:56:26;;;;;;;4.65;2.70;;;;;;;;;;5076007;28;20024;-75
2022/07/15 00:58:53;;;;;;;7.78;2.95;;;;;;;;;;5075704;28;20125;-75
2022/07/15 01:01:20;;;;;;;4.55;2.33;;;;;;;;;;5076112;28;20020;-75
2022/07/15 01:03:48;;;;;;;4.05;2.60;;;;;;;;;;5075942;28;20103;-74
2022/07/15 01:06:14;;;;;;;4.45;2.72;;;;;;;;;;5075914;28;20024;-75
2022/07/15 01:08:40;;;;;;;3.05;2.55;;;;;;;;;;5076174;28;20032;-76
2022/07/15 01:11:06;;;;;;;6.28;2.60;;;;;;;;;;5075646;28;20021;-76
2022/07/15 01:13:33;;;;;;;3.80;2.47;;;;;;;;;;5075362;28;20035;-77
2022/07/15 01:15:59;;;;;;;10.23;2.90;;;;;;;;;;5075866;28;20063;-77
2022/07/15 01:18:25;;;;;;;4.03;2.60;;;;;;;;;;5075598;28;20094;-77
2022/07/15 01:20:51;;;;;;;2.95;2.45;;;;;;;;;;5057607;28;20486;-77
2022/07/15 01:23:17;;;;;;;4.00;2.53;;;;;;;;;;5075480;28;20035;-77
2022/07/15 01:25:44;;;;;;;2.63;2.05;;;;;;;;;;5075442;28;20031;-78
2022/07/15 01:28:11;;;;;;;5.50;3.00;;;;;;;;;;5057739;28;20070;-75
2022/07/15 01:30:37;;;;;;;4.00;2.88;;;;;;;;;;5075295;28;20016;-76
2022/07/15 01:33:04;;;;;;;3.35;2.53;;;;;;;;;;5075574;28;20024;-75
2022/07/15 01:35:30;;;;;;;3.55;2.83;;;;;;;;;;5075477;28;20028;-78
2022/07/15 01:37:56;;;;;;;2.92;2.45;;;;;;;;;;5075137;28;20025;-77
2022/07/15 01:40:22;;;;;;;7.20;3.50;;;;;;;;;;5075679;28;20086;-76
2022/07/15 01:42:48;;;;;;;4.72;2.50;;;;;;;;;;5075052;28;20031;-75
2022/07/15 01:45:15;;;;;;;4.45;3.60;;;;;;;;;;5074530;28;20036;-76
2022/07/15 01:47:45;;;;;;;3.30;3.00;;;;;;;;;;5074849;28;20448;-75
2022/07/15 01:50:11;;;;;;;3.95;2.60;;;;;;;;;;5074971;28;20112;-75
2022/07/15 01:52:37;;;;;;;14.93;4.25;;;;;;;;;;5075048;28;20478;-76
2022/07/15 01:55:04;;;;;;;6.68;3.45;;;;;;;;;;5074708;28;20032;-76
2022/07/15 01:57:30;;;;;;;5.93;3.05;;;;;;;;;;5074241;28;20034;-76
2022/07/15 01:59:57;;;;;;;4.00;3.10;;;;;;;;;;5056012;28;20040;-76
2022/07/15 02:02:23;;;;;;;5.68;2.80;;;;;;;;;;5074739;28;20092;-78
2022/07/15 02:04:49;;;;;;;9.90;2.63;;;;;;;;;;5074658;28;20073;-76
2022/07/15 02:07:15;;;;;;;4.45;2.70;;;;;;;;;;5074597;28;20025;-79
2022/07/15 02:09:42;;;;;;;4.82;2.50;;;;;;;;;;5074609;28;20020;-77
2022/07/15 02:12:08;;;;;;;2.58;2.30;;;;;;;;;;5074502;28;20032;-76
2022/07/15 02:14:34;;;;;;;4.00;2.70;;;;;;;;;;5074050;28;20025;-76
2022/07/15 02:17:01;;;;;;;3.85;2.80;;;;;;;;;;5074837;28;20033;-76
2022/07/15 02:19:27;;;;;;;4.22;3.03;;;;;;;;;;5074365;28;20041;-76
2022/07/15 02:21:53;;;;;;;3.33;2.55;;;;;;;;;;5074422;28;20386;-76
2022/07/15 02:24:19;;;;;;;3.50;2.70;;;;;;;;;;5074238;28;20027;-76
2022/07/15 02:26:49;;;;;;;7.45;2.95;;;;;;;;;;5074291;28;20036;-76
2022/07/15 02:29:15;;;;;;;3.13;2.50;;;;;;;;;;5074138;28;20022;-76
2022/07/15 02:31:42;;;;;;;2.58;2.38;;;;;;;;;;5074182;28;20024;-77
2022/07/15 02:34:09;;;;;;;3.30;2.22;;;;;;;;;;5074129;28;20040;-76
2022/07/15 02:36:36;;;;;;;3.88;2.55;;;;;;;;;;5074067;28;20027;-75
2022/07/15 02:39:03;;;;;;;3.58;2.40;;;;;;;;;;5073929;28;20029;-77
2022/07/15 02:41:30;;;;;;;4.00;2.67;;;;;;;;;;5073889;28;20021;-76
2022/07/15 02:43:59;;;;;;;4.70;2.70;;;;;;;;;;5073563;28;20027;-75
2022/07/15 02:46:25;;;;;;;5.75;2.70;;;;;;;;;;5073501;28;20158;-76
2022/07/15 02:48:52;;;;;;;3.25;2.60;;;;;;;;;;5073783;28;20056;-75
2022/07/15 02:51:18;;;;;;;4.07;2.70;;;;;;;;;;5073709;28;20428;-76
2022/07/15 02:53:44;;;;;;;4.38;2.63;;;;;;;;;;5073756;28;20021;-75
2022/07/15 02:56:10;;;;;;;3.15;2.80;;;;;;;;;;5073761;28;20521;-75
2022/07/15 02:58:36;;;;;;;3.28;2.58;;;;;;;;;;5073601;28;20040;-76
2022/07/15 03:01:02;;;;;;;3.10;2.60;;;;;;;;;;5054908;28;20040;-76
2022/07/15 03:03:28;;;;;;;2.65;2.40;;;;;;;;;;5073661;28;20390;-76
2022/07/15 03:05:59;;;;;;;5.47;3.00;;;;;;;;;;5073534;28;20486;-76
2022/07/15 03:08:25;;;;;;;4.30;2.97;;;;;;;;;;5072557;28;20028;-76
2022/07/15 03:10:51;;;;;;;3.92;2.78;;;;;;;;;;5073501;28;20035;-77
2022/07/15 03:13:18;;;;;;;4.53;3.10;;;;;;;;;;5073096;28;20082;-74
2022/07/15 03:15:44;;;;;;;3.58;2.70;;;;;;;;;;5073221;28;20029;-76
2022/07/15 03:18:10;;;;;;;4.20;2.58;;;;;;;;;;5073131;28;20054;-76
2022/07/15 03:20:36;;;;;;;6.25;3.15;;;;;;;;;;5073416;28;20025;-76
2022/07/15 03:23:02;;;;;;;6.35;2.95;;;;;;;;;;5073236;28;20016;-76
2022/07/15 03:25:28;;;;;;;5.50;3.13;;;;;;;;;;5073120;28;20032;-76
2022/07/15 03:27:54;;;;;;;7.30;4.25;;;;;;;;;;5073267;28;20020;-76
2022/07/15 03:30:22;;;;;;;7.70;6.32;;;;;;;;;;5073140;28;20025;-74
2022/07/15 03:32:48;;;;;;;7.28;5.43;;;;;;;;;;5073053;28;20069;-74
2022/07/15 03:35:14;;;;;;;6.47;3.53;;;;;;;;;;5073079;28;20104;-74
2022/07/15 03:37:40;;;;;;;5.75;3.25;;;;;;;;;;5073085;28;20032;-76
2022/07/15 03:40:07;;;;;;;4.80;4.13;;;;;;;;;;5072930;28;20044;-76
2022/07/15 03:42:34;;;;;;;4.65;3.45;;;;;;;;;;5073066;28;20030;-76
2022/07/15 03:45:00;;;;;;;5.38;3.35;;;;;;;;;;5072632;28;20478;-76
2022/07/15 03:47:28;;;;;;;4.60;2.97;;;;;;;;;;5072780;28;20044;-76
2022/07/15 03:49:54;;;;;;;8.88;4.00;;;;;;;;;;5073008;28;20478;-76
2022/07/15 03:52:20;;;;;;;6.13;3.25;;;;;;;;;;5073155;28;20059;-76
2022/07/15 03:54:46;;;;;;;4.35;3.50;;;;;;;;;;5073094;28;20103;-76
2022/07/15 03:57:12;;;;;;;5.20;3.63;;;;;;;;;;5072828;28;20083;-76
2022/07/15 03:59:38;;;;;;;5.18;3.17;;;;;;;;;;5072765;28;20043;-76
2022/07/15 04:02:05;;;;;;;5.10;3.42;;;;;;;;;;5054786;28;20029;-76
2022/07/15 04:04:31;;;;;;;4.18;3.25;;;;;;;;;;5072924;28;20028;-75
2022/07/15 04:06:57;;;;;;;10.57;3.65;;;;;;;;;;5072792;28;20021;-76
2022/07/15 04:09:23;;;;;;;6.13;3.90;;;;;;;;;;5072663;28;20545;-76
2022/07/15 04:11:49;;;;;;;6.72;3.75;;;;;;;;;;5072916;28;20025;-76
2022/07/15 04:14:17;;;;;;;7.05;4.03;;;;;;;;;;5072527;28;20036;-76
2022/07/15 04:16:46;;;;;;;11.32;5.15;;;;;;;;;;5054611;28;20024;-76
2022/07/15 04:19:12;;;;;;;7.25;3.97;;;;;;;;;;5072633;28;20166;-75
2022/07/15 04:21:38;;;;;;;4.20;3.60;;;;;;;;;;5076789;28;20020;-76
2022/07/15 04:24:05;;;;;;;9.60;3.60;;;;;;;;;;5076631;28;20029;-76
2022/07/15 04:26:31;;;;;;;8.45;3.22;;;;;;;;;;5076587;28;20115;-76
2022/07/15 04:28:57;;;;;;;5.50;3.78;;;;;;;;;;5076628;28;20386;-76
2022/07/15 04:31:23;;;;;;;4.65;3.42;;;;;;;;;;5076413;28;20020;-76
2022/07/15 04:33:49;;;;;;;13.70;6.10;;;;;;;;;;5076274;28;20422;-76
2022/07/15 04:36:15;;;;;;;13.05;7.13;;;;;;;;;;5076381;28;20078;-75
2022/07/15 04:38:41;;;;;;;17.20;11.68;;;;;;;;;;5058295;28;20037;-75
2022/07/15 04:41:07;;;;;;;16.67;8.55;;;;;;;;;;5076155;28;20025;-76
2022/07/15 04:43:33;;;;;;;10.10;5.85;;;;;;;;;;5076075;28;20028;-75
2022/07/15 04:46:00;;;;;;;11.80;7.55;;;;;;;;;;5075829;28;20051;-75
2022/07/15 04:51:10;;;;;;;19.35;12.85;;;;;;;;;;5076319;28;20135;-76
2022/07/15 04:53:36;;;;;;;15.70;9.43;;;;;;;;;;5057923;28;20082;-76
2022/07/15 04:56:02;;;;;;;12.32;7.10;;;;;;;;;;5076126;28;20021;-78
2022/07/15 04:58:28;;;;;;;12.43;4.60;;;;;;;;;;5075811;28;20036;-78
2022/07/15 05:00:54;;;;;;;7.15;3.75;;;;;;;;;;5075801;28;20107;-77
2022/07/15 05:03:20;;;;;;;5.72;3.95;;;;;;;;;;5075776;28;20029;-78
2022/07/15 05:05:47;;;;;;;7.57;3.53;;;;;;;;;;5075854;28;20059;-76
2022/07/15 05:08:13;;;;;;;10.52;3.80;;;;;;;;;;5075618;28;20049;-75
2022/07/15 05:10:39;;;;;;;6.55;3.75;;;;;;;;;;5057170;28;20028;-75
2022/07/15 05:13:05;;;;;;;5.25;3.63;;;;;;;;;;5057830;28;20020;-77
2022/07/15 05:15:31;;;;;;;7.90;3.40;;;;;;;;;;5075242;28;20487;-76
2022/07/15 05:17:57;;;;;;;3.92;3.42;;;;;;;;;;5075602;28;20501;-77
2022/07/15 05:20:23;;;;;;;9.50;4.10;;;;;;;;;;5075650;28;20028;-75
2022/07/15 05:22:49;;;;;;;6.65;4.22;;;;;;;;;;5075626;28;20213;-76
2022/07/15 05:25:16;;;;;;;6.28;3.75;;;;;;;;;;5075354;28;20499;-76
2022/07/15 05:27:42;;;;;;;7.53;4.72;;;;;;;;;;5075350;28;20025;-78
2022/07/15 05:30:08;;;;;;;7.57;3.25;;;;;;;;;;5075301;28;20479;-74
2022/07/15 05:32:34;;;;;;;12.60;3.47;;;;;;;;;;5074798;28;20467;-78
2022/07/15 05:35:01;;;;;;;8.48;3.20;;;;;;;;;;5075293;28;20533;-78
2022/07/15 05:37:27;;;;;;;4.78;3.30;;;;;;;;;;5075182;28;20037;-75
2022/07/15 05:39:57;;;;;;;4.45;2.95;;;;;;;;;;5075234;28;20064;-79
2022/07/15 05:42:24;;;;;;;7.00;3.45;;;;;;;;;;5075074;28;20050;-76
2022/07/15 05:44:50;;;;;;;5.38;3.33;;;;;;;;;;5074806;28;20445;-75
2022/07/15 05:47:17;;;;;;;9.43;4.20;;;;;;;;;;5074641;28;20048;-75
2022/07/15 05:49:43;;;;;;;11.57;7.43;;;;;;;;;;5074862;28;20078;-76
2022/07/15 05:52:09;;;;;;;11.07;6.25;;;;;;;;;;5074894;28;20024;-77
2022/07/15 05:54:37;;;;;;;10.60;6.43;;;;;;;;;;5074795;28;20055;-76
2022/07/15 05:57:03;;;;;;;10.93;6.45;;;;;;;;;;5074854;28;20363;-76
2022/07/15 05:59:32;;;;;;;8.52;5.35;;;;;;;;;;5074838;28;20505;-78
2022/07/15 06:01:59;;;;;;;7.75;5.15;;;;;;;;;;5074579;28;20029;-78
2022/07/15 06:04:27;;;;;;;5.38;3.45;;;;;;;;;;5074494;28;20033;-75
2022/07/15 06:06:53;;;;;;;6.35;4.13;;;;;;;;;;5056613;28;20031;-76
2022/07/15 06:09:19;;;;;;;7.97;4.15;;;;;;;;;;5074480;28;20100;-79
2022/07/15 06:11:46;;;;;;;8.30;5.00;;;;;;;;;;5074939;28;20020;-76
2022/07/15 06:14:12;;;;;;;11.13;4.57;;;;;;;;;;5074205;28;20021;-77
2022/07/15 06:16:38;;;;;;;7.25;4.70;;;;;;;;;;5074696;28;20104;-77
2022/07/15 06:19:04;;;;;;;9.23;4.68;;;;;;;;;;5074066;28;20043;-77
2022/07/15 06:21:30;;;;;;;5.90;3.88;;;;;;;;;;5055590;28;20131;-76
2022/07/15 06:23:56;;;;;;;8.30;3.83;;;;;;;;;;5074347;28;20020;-77
2022/07/15 06:26:22;;;;;;;8.93;3.83;;;;;;;;;;5074140;28;20021;-75
2022/07/15 06:28:49;;;;;;;5.43;3.58;;;;;;;;;;5074232;28;20055;-76
2022/07/15 06:31:15;;;;;;;6.38;4.03;;;;;;;;;;5074094;28;20081;-79
2022/07/15 06:33:41;;;;;;;5.60;3.50;;;;;;;;;;5073987;28;20032;-75
2022/07/15 06:36:07;;;;;;;6.97;3.47;;;;;;;;;;5074064;28;20053;-75
2022/07/15 06:38:33;;;;;;;7.75;3.60;;;;;;;;;;5073871;28;20024;-75
2022/07/15 06:40:59;;;;;;;11.15;3.85;;;;;;;;;;5073988;28;20048;-75
2022/07/15 06:43:26;;;;;;;6.80;4.60;;;;;;;;;;5073549;28;20024;-75
2022/07/15 06:45:52;;;;;;;5.30;3.40;;;;;;;;;;5073473;28;20024;-75
2022/07/15 06:48:18;;;;;;;8.48;3.78;;;;;;;;;;5073682;28;20111;-76
2022/07/15 06:50:44;;;;;;;5.47;3.70;;;;;;;;;;5073612;28;20027;-76
2022/07/15 06:53:10;;;;;;;5.97;3.50;;;;;;;;;;5073838;28;20031;-76
2022/07/15 06:55:36;;;;;;;6.78;4.00;;;;;;;;;;5073678;28;20024;-75
2022/07/15 06:58:03;;;;;;;6.78;3.47;;;;;;;;;;5073356;28;20024;-75
2022/07/15 07:00:29;;;;;;;5.97;3.88;;;;;;;;;;5073457;28;20024;-75
2022/07/15 07:02:55;;;;;;;6.30;3.90;;;;;;;;;;5073523;28;20027;-74
2022/07/15 07:05:21;;;;;;;5.88;3.60;;;;;;;;;;5073403;28;20470;-76
2022/07/15 07:07:47;;;;;;;4.70;3.40;;;;;;;;;;5073452;28;20047;-76
2022/07/15 07:10:13;;;;;;;6.40;3.50;;;;;;;;;;5073517;28;20024;-76
2022/07/15 07:12:40;;;;;;;6.60;3.67;;;;;;;;;;5073470;28;20070;-76
2022/07/15 07:15:07;;;;;;;7.90;4.20;;;;;;;;;;5073135;28;20398;-75
2022/07/15 07:17:33;;;;;;;8.68;3.85;;;;;;;;;;5073105;28;20028;-76
2022/07/15 07:19:59;;;;;;;6.40;3.90;;;;;;;;;;5073176;28;20040;-76
2022/07/15 07:22:26;;;;;;;6.85;3.83;;;;;;;;;;5073173;28;20425;-76
2022/07/15 07:24:53;;;;;;;15.80;6.90;;;;;;;;;;5073340;28;20454;-79
2022/07/15 07:27:19;;;;;;;8.07;4.80;;;;;;;;;;5073011;28;20017;-79
2022/07/15 07:29:45;;;;;;;6.88;4.15;;;;;;;;;;5073179;28;20103;-75
2022/07/15 07:32:11;;;;;;;7.57;4.43;;;;;;;;;;5073235;28;20036;-73
2022/07/15 07:34:37;;;;;;;9.73;4.45;;;;;;;;;;5072921;28;20535;-78
2022/07/15 07:37:04;;;;;;;7.53;4.22;;;;;;;;;;5073064;28;20045;-80
2022/07/15 07:39:31;;;;;;;5.35;4.10;;;;;;;;;;5072821;28;20033;-78
2022/07/15 07:41:57;;;;;;;6.88;3.95;;;;;;;;;;5072741;28;20016;-79
2022/07/15 07:44:23;;;;;;;21.77;5.30;;;;;;;;;;5072770;28;20024;-78
2022/07/15 07:46:49;;;;;;;9.20;3.95;;;;;;;;;;5072408;28;20093;-76
2022/07/15 07:49:15;;;;;;;9.43;4.10;;;;;;;;;;5072859;28;20482;-74
2022/07/15 07:51:41;;;;;;;7.20;3.80;;;;;;;;;;5072886;28;20047;-75
2022/07/15 07:54:08;;;;;;;8.90;4.40;;;;;;;;;;5072303;28;20024;-76
2022/07/15 07:56:35;;;;;;;9.25;5.00;;;;;;;;;;5072794;28;20103;-77
2022/07/15 07:59:01;;;;;;;8.50;5.05;;;;;;;;;;5072780;28;20028;-77
2022/07/15 08:01:27;;;;;;;14.50;4.82;;;;;;;;;;5072923;28;20482;-78
2022/07/15 08:03:53;;;;;;;7.85;4.22;;;;;;;;;;5072737;28;20044;-78
2022/07/15 08:06:22;;;;;;;14.07;4.20;;;;;;;;;;5072733;28;20031;-79
2022/07/15 08:08:48;;;;;;;8.18;5.25;;;;;;;;;;5072581;28;20023;-79
2022/07/15 08:11:14;;;;;;;8.40;4.32;;;;;;;;;;5072678;28;20492;-78
2022/07/15 08:13:41;;;;;;;7.45;3.80;;;;;;;;;;5072529;28;20032;-75
2022/07/15 08:16:07;;;;;;;14.63;5.15;;;;;;;;;;5072704;28;20489;-75
2022/07/15 08:18:33;;;;;;;6.88;4.07;;;;;;;;;;5072467;28;20037;-76
2022/07/15 08:20:59;;;;;;;8.98;4.53;;;;;;;;;;5072750;28;20070;-76
2022/07/15 08:23:25;;;;;;;9.73;5.18;;;;;;;;;;5072375;28;20024;-76
2022/07/15 08:25:52;;;;;;;6.22;3.85;;;;;;;;;;5072478;28;20017;-76
2022/07/15 08:28:18;;;;;;;12.02;3.80;;;;;;;;;;5072711;28;20031;-74
2022/07/15 08:30:45;;;;;;;6.53;4.05;;;;;;;;;;5072495;28;20113;-75
2022/07/15 08:33:11;;;;;;;9.50;4.28;;;;;;;;;;5072403;28;20040;-74
2022/07/15 08:35:37;;;;;;;7.90;4.13;;;;;;;;;;5072588;28;20539;-75
2022/07/15 08:38:07;;;;;;;7.22;4.18;;;;;;;;;;5072442;28;20366;-76
2022/07/15 08:40:33;;;;;;;10.15;4.35;;;;;;;;;;5072462;28;20041;-76
2022/07/15 08:42:59;;;;;;;8.15;4.68;;;;;;;;;;5053693;28;20501;-76
2022/07/15 08:45:26;;;;;;;4.97;3.63;;;;;;;;;;5072203;28;20107;-76
2022/07/15 08:47:52;;;;;;;8.27;4.18;;;;;;;;;;5072171;28;20454;-76
2022/07/15 08:50:19;;;;;;;8.63;4.78;;;;;;;;;;5072268;28;20130;-75
2022/07/15 08:52:46;;;;;;;5.10;3.50;;;;;;;;;;5072318;28;20551;-76
2022/07/15 08:55:13;;;;;;;6.13;3.50;;;;;;;;;;5072170;28;20031;-75
2022/07/15 08:57:39;;;;;;;6.75;3.65;;;;;;;;;;5053427;28;20475;-76
2022/07/15 09:00:11;;;;;;;6.60;3.75;;;;;;;;;;5072309;28;20386;-75
2022/07/15 09:02:40;;;;;;;5.78;3.42;;;;;;;;;;5072251;28;20020;-76
2022/07/15 09:05:18;;;;;;;6.07;3.80;;;;;;;;;;5072256;28;20503;-76
2022/07/15 09:07:52;;;;;;;5.30;4.03;;;;;;;;;;5074498;28;20032;-76
2022/07/15 09:10:18;;;;;;;3.92;3.10;;;;;;;;;;5075784;28;20421;-76
2022/07/15 09:12:44;;;;;;;3.38;2.95;;;;;;;;;;5075671;28;20021;-76
2022/07/15 09:15:28;;;;;;;9.40;3.65;;;;;;;;;;5075289;28;20378;-76
2022/07/15 09:18:03;;;;;;;5.15;3.63;;;;;;;;;;5075697;28;20052;-75
2022/07/15 09:20:29;;;;;;;4.50;3.20;;;;;;;;;;5075354;28;20043;-76
2022/07/15 09:22:56;;;;;;;4.90;3.45;;;;;;;;;;5075405;28;20108;-74
2022/07/15 09:25:22;;;;;;;4.63;3.35;;;;;;;;;;5075478;28;20052;-76
2022/07/15 09:27:48;;;;;;;5.82;2.30;;;;;;;;;;5075310;28;20027;-74
2022/07/15 09:36:04;;;;;;;5.88;3.38;;;;;;;;;;5075448;28;20156;-74
2022/07/15 09:38:40;;;;;;;4.82;3.17;;;;;;;;;;5075030;28;20025;-76
2022/07/15 09:41:08;;;;;;;4.20;3.20;;;;;;;;;;5057238;28;20028;-76
2022/07/15 09:43:52;;;;;;;7.30;3.78;;;;;;;;;;5074378;28;20424;-76
2022/07/15 09:46:20;;;;;;;7.13;3.03;;;;;;;;;;5074808;28;20658;-76
2022/07/15 09:48:48;;;;;;;4.05;2.33;;;;;;;;;;5074821;28;20423;-76
2022/07/15 09:51:15;;;;;;;4.60;2.45;;;;;;;;;;5075300;28;20104;-76
2022/07/15 09:53:41;;;;;;;4.90;2.63;;;;;;;;;;5074546;28;20030;-75
2022/07/15 09:56:09;;;;;;;7.38;3.00;;;;;;;;;;5074910;28;20100;-76
2022/07/15 09:58:40;;;;;;;4.35;2.92;;;;;;;;;;5074729;28;20101;-76
2022/07/15 10:01:06;;;;;;;6.73;2.50;;;;;;;;;;5074832;28;20013;-76
2022/07/15 10:03:33;;;;;;;2.92;2.28;;;;;;;;;;5074456;28;20052;-76
2022/07/15 10:06:01;;;;;;;3.85;2.20;;;;;;;;;;5074752;28;20052;-76
2022/07/15 10:08:28;;;;;;;5.53;2.80;;;;;;;;;;5055903;28;20401;-73
2022/07/15 10:10:56;;;;;;;6.78;2.63;;;;;;;;;;5074691;28;20488;-74
2022/07/15 10:13:40;;;;;;;5.38;2.20;;;;;;;;;;5074462;28;20017;-75
2022/07/15 10:16:33;;;;;;;6.78;2.47;;;;;;;;;;5074283;28;20078;-76
2022/07/15 10:18:59;;;;;;;4.55;2.90;;;;;;;;;;5069450;28;20084;-74
2022/07/15 10:21:25;;;;;;;7.60;3.00;;;;;;;;;;5074468;28;20094;-76
2022/07/15 10:24:04;;;;;;;6.35;3.25;;;;;;;;;;5074229;28;20107;-75
2022/07/15 10:26:40;;;;;;;5.03;3.00;;;;;;;;;;5074278;28;20021;-75
2022/07/15 10:29:07;;;;;;;6.85;3.22;;;;;;;;;;5074296;28;20020;-75
2022/07/15 10:31:35;;;;;;;6.75;2.50;;;;;;;;;;5074032;28;20052;-76
2022/07/15 10:34:07;;;;;;;6.57;3.58;;;;;;;;;;5073763;28;20453;-74
2022/07/15 10:36:39;;;;;;;3.97;3.33;;;;;;;;;;5074081;28;20438;-74
2022/07/15 10:39:05;;;;;;;5.47;2.78;;;;;;;;;;5073917;28;20161;-75
2022/07/15 10:41:50;;;;;;;12.60;3.30;;;;;;;;;;5073957;28;20027;-75
2022/07/15 10:44:17;;;;;;;4.70;2.85;;;;;;;;;;5073668;28;20020;-75
2022/07/15 10:46:43;;;;;;;6.97;3.22;;;;;;;;;;5055470;28;20052;-74
2022/07/15 10:49:09;;;;;;;7.57;3.33;;;;;;;;;;5073680;28;20025;-74
2022/07/15 10:51:35;;;;;;;7.95;4.53;;;;;;;;;;5073853;28;20017;-74
2022/07/15 10:54:05;;;;;;;7.72;3.70;;;;;;;;;;5073717;28;20152;-74
2022/07/15 10:56:31;;;;;;;4.07;2.90;;;;;;;;;;5073566;28;20103;-74
2022/07/15 10:59:11;;;;;;;6.95;3.95;;;;;;;;;;5074184;28;20029;-75
2022/07/15 11:01:42;;;;;;;4.60;3.08;;;;;;;;;;5073464;28;20451;-74
2022/07/15 11:04:14;;;;;;;7.25;3.25;;;;;;;;;;5073585;28;20031;-74
2022/07/15 11:06:59;;;;;;;6.55;2.88;;;;;;;;;;5073504;28;20024;-74
2022/07/15 11:09:43;;;;;;;6.65;3.95;;;;;;;;;;5073410;28;20039;-74
2022/07/15 11:12:11;;;;;;;4.97;3.22;;;;;;;;;;5073535;28;20029;-75
2022/07/15 11:14:46;;;;;;;7.65;3.33;;;;;;;;;;5073174;28;20316;-72
2022/07/15 11:17:16;;;;;;;4.53;3.33;;;;;;;;;;5073286;28;20530;-74
2022/07/15 11:19:43;;;;;;;7.10;3.23;;;;;;;;;;5055159;28;20135;-74
2022/07/15 11:22:09;;;;;;;5.30;4.80;;;;;;;;;;5073195;28;20332;-75
2022/07/15 11:24:36;;;;;;;6.20;3.08;;;;;;;;;;5073071;28;20020;-76
2022/07/15 11:27:02;;;;;;;7.20;3.20;;;;;;;;;;5073288;28;20016;-75
2022/07/15 11:29:48;;;;;;;5.43;2.58;;;;;;;;;;5072470;28;20032;-74
2022/07/15 11:32:15;;;;;;;5.32;2.58;;;;;;;;;;5073002;28;20032;-72
2022/07/15 11:34:46;;;;;;;4.85;2.97;;;;;;;;;;5055039;28;20029;-72
2022/07/15 11:37:18;;;;;;;7.57;3.28;;;;;;;;;;5073049;28;20024;-75
2022/07/15 11:39:44;;;;;;;4.15;2.70;;;;;;;;;;5073154;28;20460;-73
2022/07/15 11:45:03;;;;;;;9.20;3.95;;;;;;;;;;5073436;28;20047;-75
2022/07/15 11:47:29;;;;;;;3.75;2.47;;;;;;;;;;5053952;28;20051;-73
2022/07/15 11:50:03;;;;;;;3.90;2.92;;;;;;;;;;5072726;28;20484;-71
2022/07/15 11:52:29;;;;;;;6.38;2.78;;;;;;;;;;5072841;28;20021;-73
2022/07/15 11:54:56;;;;;;;6.38;3.38;;;;;;;;;;5072820;28;20473;-73
2022/07/15 11:57:22;;;;;;;7.10;3.50;;;;;;;;;;5072951;28;20024;-73
2022/07/15 11:59:55;;;;;;;5.20;3.88;;;;;;;;;;5072620;28;20489;-73
2022/07/15 12:02:24;;;;;;;4.38;2.70;;;;;;;;;;5072619;28;20036;-73
2022/07/15 12:04:50;;;;;;;5.22;2.60;;;;;;;;;;5072788;28;20037;-74
2022/07/15 12:07:16;;;;;;;4.68;3.00;;;;;;;;;;5072863;28;20371;-74
2022/07/15 12:09:48;;;;;;;5.55;3.17;;;;;;;;;;5072608;28;20390;-73
2022/07/15 12:12:15;;;;;;;4.60;4.05;;;;;;;;;;5072575;28;20029;-73
2022/07/15 12:14:42;;;;;;;7.32;4.00;;;;;;;;;;5072563;28;20059;-73
2022/07/15 12:17:09;;;;;;;4.82;3.30;;;;;;;;;;5072735;28;20079;-73
2022/07/15 12:19:35;;;;;;;4.47;3.25;;;;;;;;;;5072472;28;20037;-74
2022/07/15 12:22:10;;;;;;;7.43;3.50;;;;;;;;;;5072711;28;20024;-73
2022/07/15 12:24:40;;;;;;;5.18;3.47;;;;;;;;;;5072566;28;20027;-73
2022/07/15 12:27:07;;;;;;;4.87;3.83;;;;;;;;;;5072669;28;20132;-74
2022/07/15 12:29:33;;;;;;;3.70;3.20;;;;;;;;;;5072761;28;20021;-73
2022/07/15 12:32:04;;;;;;;6.05;3.53;;;;;;;;;;5072530;28;20498;-74
2022/07/15 12:34:49;;;;;;;10.10;4.57;;;;;;;;;;5054286;28;20017;-74
2022/07/15 12:37:19;;;;;;;9.25;6.00;;;;;;;;;;5054434;28;20577;-73
2022/07/15 12:40:01;;;;;;;11.10;4.67;;;;;;;;;;5072421;28;20036;-73
2022/07/15 12:42:49;;;;;;;6.75;4.65;;;;;;;;;;5075952;28;20095;-73
2022/07/15 12:45:16;;;;;;;7.13;4.47;;;;;;;;;;5075873;28;20024;-73
2022/07/15 12:48:02;;;;;;;7.88;4.10;;;;;;;;;;5075715;28;20044;-73
2022/07/15 12:50:28;;;;;;;6.15;3.83;;;;;;;;;;5076010;28;20389;-73
2022/07/15 12:52:55;;;;;;;12.48;4.88;;;;;;;;;;5075947;28;20100;-72
2022/07/15 12:55:23;;;;;;;6.82;4.03;;;;;;;;;;5075862;28;20029;-73
2022/07/15 12:57:49;;;;;;;8.32;4.03;;;;;;;;;;5075957;28;20096;-73
2022/07/15 13:00:16;;;;;;;8.90;3.47;;;;;;;;;;5075715;28;20466;-72
2022/07/15 13:02:57;;;;;;;5.28;3.78;;;;;;;;;;5075757;28;20035;-74
2022/07/15 13:05:24;;;;;;;8.32;3.75;;;;;;;;;;5075697;28;20028;-73
2022/07/15 13:07:50;;;;;;;6.40;3.83;;;;;;;;;;5075722;28;20446;-73
2022/07/15 13:10:16;;;;;;;7.80;4.30;;;;;;;;;;5075713;28;20032;-74
2022/07/15 13:12:42;;;;;;;5.78;3.70;;;;;;;;;;5075507;28;20028;-73
2022/07/15 13:15:09;;;;;;;6.57;3.80;;;;;;;;;;5075660;28;20043;-73
2022/07/15 13:17:35;;;;;;;10.82;4.20;;;;;;;;;;5075784;28;20021;-73
2022/07/15 13:20:02;;;;;;;8.55;3.90;;;;;;;;;;5075467;28;20036;-73
2022/07/15 13:22:29;;;;;;;4.32;3.38;;;;;;;;;;5075475;28;20020;-73
2022/07/15 13:24:55;;;;;;;5.85;3.95;;;;;;;;;;5075361;28;20096;-73
2022/07/15 13:27:21;;;;;;;7.82;4.05;;;;;;;;;;5075445;28;20029;-73
2022/07/15 13:29:47;;;;;;;6.20;4.43;;;;;;;;;;5075438;28;20024;-73
2022/07/15 13:32:13;;;;;;;4.63;3.42;;;;;;;;;;5075236;28;20025;-74
2022/07/15 13:34:40;;;;;;;5.05;3.60;;;;;;;;;;5075153;28;20024;-73
2022/07/15 13:37:06;;;;;;;8.93;3.80;;;;;;;;;;5075299;28;20028;-74
2022/07/15 13:39:32;;;;;;;5.35;3.88;;;;;;;;;;5075849;28;20033;-73
2022/07/15 13:41:58;;;;;;;10.50;3.65;;;;;;;;;;5075237;28;20031;-74
2022/07/15 13:44:24;;;;;;;10.07;4.07;;;;;;;;;;5074770;28;20021;-72
2022/07/15 13:46:50;;;;;;;5.68;3.45;;;;;;;;;;5074862;28;20098;-73
2022/07/15 13:49:16;;;;;;;6.22;4.40;;;;;;;;;;5056987;28;20025;-74
2022/07/15 13:51:42;;;;;;;10.02;4.57;;;;;;;;;;5074680;28;20028;-74
2022/07/15 13:54:12;;;;;;;9.52;4.60;;;;;;;;;;5056613;28;20071;-74
2022/07/15 13:56:38;;;;;;;10.53;6.60;;;;;;;;;;5074767;28;20017;-73
2022/07/15 13:59:05;;;;;;;7.75;5.35;;;;;;;;;;5056933;28;20282;-74
2022/07/15 14:01:32;;;;;;;8.32;4.75;;;;;;;;;;5074796;28;20025;-74
2022/07/15 14:03:59;;;;;;;7.57;5.18;;;;;;;;;;5074901;28;20470;-74
2022/07/15 14:06:25;;;;;;;12.65;9.45;;;;;;;;;;5074549;28;20111;-74
2022/07/15 14:08:51;;;;;;;8.57;5.45;;;;;;;;;;5074570;28;20056;-75
2022/07/15 14:11:17;;;;;;;11.18;5.20;;;;;;;;;;5074652;28;20036;-73
2022/07/15 14:13:44;;;;;;;6.70;5.40;;;;;;;;;;5074324;28;20378;-74
2022/07/15 14:16:11;;;;;;;9.55;5.70;;;;;;;;;;5056643;28;20037;-74
2022/07/15 14:18:43;;;;;;;8.73;5.40;;;;;;;;;;5074293;28;20039;-74
2022/07/15 14:21:10;;;;;;;8.48;5.18;;;;;;;;;;5074136;28;20032;-73
2022/07/15 14:23:36;;;;;;;8.77;4.70;;;;;;;;;;5055752;28;20032;-74
2022/07/15 14:26:02;;;;;;;6.28;5.15;;;;;;;;;;5074356;28;20096;-74
2022/07/15 14:28:29;;;;;;;8.07;5.68;;;;;;;;;;5074365;28;20025;-75
2022/07/15 14:30:55;;;;;;;8.13;5.00;;;;;;;;;;5074171;28;20025;-74
2022/07/15 14:33:21;;;;;;;9.93;4.85;;;;;;;;;;5056278;28;20059;-74
2022/07/15 14:35:47;;;;;;;7.78;4.15;;;;;;;;;;5074178;28;20024;-74
2022/07/15 14:38:13;;;;;;;8.35;4.40;;;;;;;;;;5074353;28;20024;-74
2022/07/15 14:40:39;;;;;;;5.22;3.80;;;;;;;;;;5073884;28;20033;-75
2022/07/15 14:43:05;;;;;;;8.52;4.90;;;;;;;;;;5056050;28;20695;-75
2022/07/15 14:45:32;;;;;;;11.57;4.90;;;;;;;;;;5073955;28;20033;-74
2022/07/15 14:47:58;;;;;;;9.57;4.53;;;;;;;;;;5073609;28;20414;-73
2022/07/15 14:50:24;;;;;;;6.72;4.40;;;;;;;;;;5074023;28;20039;-74
2022/07/15 14:52:50;;;;;;;9.60;4.20;;;;;;;;;;5056191;28;20534;-74
2022/07/15 14:55:16;;;;;;;7.93;5.30;;;;;;;;;;5073737;28;20028;-74
2022/07/15 14:57:42;;;;;;;7.35;4.88;;;;;;;;;;5073457;28;20101;-72